createdAt,value
2023-03-05T00:00:03.348Z,48.24
2023-03-05T00:01:03.297Z,47.01
2023-03-05T00:02:05.255Z,47.06
2023-03-05T00:03:03.265Z,47.37
2023-03-05T00:04:03.269Z,47.89
2023-03-05T00:05:03.297Z,47.14
2023-03-05T00:06:03.273Z,48.94
2023-03-05T00:07:03.314Z,47.12
2023-03-05T00:08:03.254Z,46.97
2023-03-05T00:09:03.279Z,47.06
2023-03-05T00:10:03.262Z,48.92
2023-03-05T00:11:03.254Z,47.08
2023-03-05T00:12:03.253Z,47.00
2023-03-05T00:13:03.247Z,47.03
2023-03-05T00:14:03.207Z,47.92
2023-03-05T00:15:03.215Z,46.94
2023-03-05T00:16:03.254Z,46.90
2023-03-05T00:17:03.193Z,46.80
2023-03-05T00:18:03.198Z,46.69
2023-03-05T00:19:03.163Z,46.61
2023-03-05T00:20:03.197Z,46.63
2023-03-05T00:21:03.164Z,46.72
2023-03-05T00:22:03.221Z,46.87
2023-03-05T00:23:03.132Z,46.93
2023-03-05T00:24:03.138Z,46.86
2023-03-05T00:25:03.161Z,46.91
2023-03-05T00:26:03.185Z,46.90
2023-03-05T00:27:03.163Z,47.03
2023-03-05T00:28:03.115Z,46.85
2023-03-05T00:29:03.105Z,46.89
2023-03-05T00:30:03.104Z,47.54
2023-03-05T00:31:03.093Z,47.63
2023-03-05T00:32:03.218Z,47.08
2023-03-05T00:33:03.072Z,46.98
2023-03-05T00:34:03.104Z,46.91
2023-03-05T00:35:03.067Z,46.97
2023-03-05T00:36:03.118Z,46.93
2023-03-05T00:37:03.054Z,47.07
2023-03-05T00:38:03.110Z,47.04
2023-03-05T00:39:03.084Z,47.31
2023-03-05T00:40:03.084Z,47.13
2023-03-05T00:41:03.016Z,47.17
2023-03-05T00:42:03.037Z,47.25
2023-03-05T00:43:03.015Z,47.08
2023-03-05T00:44:03.029Z,48.82
2023-03-05T00:45:03.044Z,46.79
2023-03-05T00:46:03.066Z,46.93
2023-03-05T00:47:02.998Z,46.97
2023-03-05T00:48:02.977Z,48.47
2023-03-05T00:49:02.993Z,46.93
2023-03-05T00:50:02.999Z,46.92
2023-03-05T00:51:02.951Z,46.94
2023-03-05T00:52:02.952Z,47.52
2023-03-05T00:53:02.942Z,48.37
2023-03-05T00:54:02.929Z,47.07
2023-03-05T00:55:03.001Z,47.14
2023-03-05T00:56:02.917Z,47.21
2023-03-05T00:57:02.947Z,47.20
2023-03-05T00:58:03.948Z,47.08
2023-03-05T00:59:02.889Z,47.13
2023-03-05T01:00:02.918Z,47.13
2023-03-05T01:01:03.009Z,47.16
2023-03-05T01:02:02.927Z,47.39
2023-03-05T01:03:02.874Z,47.18
2023-03-05T01:04:02.902Z,47.42
2023-03-05T01:05:02.917Z,46.98
2023-03-05T01:06:02.903Z,48.28
2023-03-05T01:07:02.855Z,47.40
2023-03-05T01:08:02.854Z,47.00
2023-03-05T01:09:02.843Z,47.02
2023-03-05T01:10:02.811Z,46.86
2023-03-05T01:11:02.884Z,46.87
2023-03-05T01:12:02.804Z,46.86
2023-03-05T01:13:02.791Z,46.86
2023-03-05T01:14:02.812Z,47.06
2023-03-05T01:15:02.819Z,47.05
2023-03-05T01:16:02.827Z,46.92
2023-03-05T01:17:02.773Z,48.43
2023-03-05T01:18:02.853Z,46.67
2023-03-05T01:19:02.757Z,46.64
2023-03-05T01:20:02.740Z,46.80
2023-03-05T01:21:02.796Z,47.02
2023-03-05T01:22:02.759Z,47.13
2023-03-05T01:23:02.740Z,46.95
2023-03-05T01:24:02.759Z,48.81
2023-03-05T01:25:02.724Z,46.96
2023-03-05T01:26:02.713Z,48.22
2023-03-05T01:27:02.755Z,46.92
2023-03-05T01:28:02.716Z,47.68
2023-03-05T01:29:02.713Z,46.96
2023-03-05T01:30:02.685Z,47.14
2023-03-05T01:31:02.717Z,48.49
2023-03-05T01:32:02.669Z,47.13
2023-03-05T01:33:02.648Z,48.78
2023-03-05T01:34:02.735Z,47.09
2023-03-05T01:35:02.643Z,47.17
2023-03-05T01:36:02.625Z,46.91
2023-03-05T01:37:02.652Z,47.11
2023-03-05T01:38:02.694Z,47.23
2023-03-05T01:39:02.615Z,47.26
2023-03-05T01:40:02.683Z,47.14
2023-03-05T01:41:02.604Z,47.26
2023-03-05T01:42:02.593Z,47.07
2023-03-05T01:43:02.600Z,47.90
2023-03-05T01:44:02.620Z,47.07
2023-03-05T01:45:02.769Z,47.13
2023-03-05T01:46:02.664Z,47.00
2023-03-05T01:47:02.568Z,47.15
2023-03-05T01:48:02.566Z,47.18
2023-03-05T01:49:02.676Z,47.14
2023-03-05T01:50:02.559Z,47.17
2023-03-05T01:51:02.553Z,47.06
2023-03-05T01:52:02.607Z,47.25
2023-03-05T01:53:02.558Z,46.85
2023-03-05T01:54:02.519Z,47.06
2023-03-05T01:55:02.537Z,47.11
2023-03-05T01:56:02.537Z,48.21
2023-03-05T01:57:02.551Z,47.26
2023-03-05T01:58:02.524Z,47.24
2023-03-05T01:59:02.575Z,47.22
2023-03-05T02:00:02.489Z,47.13
2023-03-05T02:01:02.513Z,47.62
2023-03-05T02:02:02.528Z,47.20
2023-03-05T02:03:02.472Z,47.11
2023-03-05T02:04:02.536Z,47.18
2023-03-05T02:05:02.497Z,47.20
2023-03-05T02:06:02.445Z,47.09
2023-03-05T02:07:02.485Z,47.19
2023-03-05T02:08:02.427Z,47.40
2023-03-05T02:09:02.483Z,47.16
2023-03-05T02:10:02.449Z,47.61
2023-03-05T02:11:02.430Z,48.15
2023-03-05T02:12:02.441Z,47.41
2023-03-05T02:13:02.423Z,47.27
2023-03-05T02:14:02.393Z,47.14
2023-03-05T02:15:02.391Z,47.08
2023-03-05T02:16:02.419Z,47.08
2023-03-05T02:17:03.421Z,47.31
2023-03-05T02:18:02.395Z,47.08
2023-03-05T02:19:02.387Z,47.16
2023-03-05T02:20:02.355Z,47.24
2023-03-05T02:21:02.356Z,47.03
2023-03-05T02:22:02.375Z,47.06
2023-03-05T02:23:02.331Z,47.13
2023-03-05T02:24:02.366Z,47.00
2023-03-05T02:25:02.472Z,47.14
2023-03-05T02:26:02.318Z,47.00
2023-03-05T02:27:02.329Z,47.23
2023-03-05T02:28:02.306Z,47.38
2023-03-05T02:29:02.316Z,47.20
2023-03-05T02:30:02.342Z,47.23
2023-03-05T02:31:02.324Z,47.16
2023-03-05T02:32:02.463Z,47.26
2023-03-05T02:33:02.275Z,47.06
2023-03-05T02:34:02.289Z,47.00
2023-03-05T02:35:02.298Z,47.11
2023-03-05T02:36:02.264Z,47.21
2023-03-05T02:37:02.293Z,48.89
2023-03-05T02:38:02.276Z,47.12
2023-03-05T02:39:02.249Z,47.07
2023-03-05T02:40:02.226Z,47.01
2023-03-05T02:41:02.226Z,47.15
2023-03-05T02:42:02.229Z,47.83
2023-03-05T02:43:02.247Z,47.37
2023-03-05T02:44:02.253Z,49.06
2023-03-05T02:45:02.212Z,47.48
2023-03-05T02:46:02.315Z,47.33
2023-03-05T02:47:02.239Z,47.05
2023-03-05T02:48:02.203Z,47.09
2023-03-05T02:49:02.177Z,47.23
2023-03-05T02:50:02.184Z,47.00
2023-03-05T02:51:02.170Z,47.04
2023-03-05T02:52:02.155Z,46.98
2023-03-05T02:53:02.197Z,47.31
2023-03-05T02:54:02.160Z,47.07
2023-03-05T02:55:02.146Z,46.90
2023-03-05T02:56:02.140Z,46.92
2023-03-05T02:57:02.163Z,50.70
2023-03-05T02:58:02.137Z,46.90
2023-03-05T02:59:02.190Z,47.06
2023-03-05T03:00:02.235Z,47.12
2023-03-05T03:01:02.122Z,47.08
2023-03-05T03:02:02.098Z,48.07
2023-03-05T03:03:02.105Z,47.52
2023-03-05T03:04:02.140Z,46.90
2023-03-05T03:05:02.097Z,46.92
2023-03-05T03:06:02.066Z,47.00
2023-03-05T03:07:02.067Z,46.92
2023-03-05T03:08:02.068Z,46.92
2023-03-05T03:09:02.081Z,47.07
2023-03-05T03:10:02.071Z,47.05
2023-03-05T03:11:02.044Z,47.83
2023-03-05T03:12:02.051Z,46.97
2023-03-05T03:13:02.025Z,47.14
2023-03-05T03:14:02.019Z,47.19
2023-03-05T03:15:02.022Z,47.06
2023-03-05T03:16:02.006Z,47.14
2023-03-05T03:17:03.013Z,47.18
2023-03-05T03:18:02.166Z,47.00
2023-03-05T03:19:01.997Z,47.42
2023-03-05T03:20:01.966Z,47.04
2023-03-05T03:21:01.993Z,47.22
2023-03-05T03:22:01.954Z,47.24
2023-03-05T03:23:01.978Z,47.31
2023-03-05T03:24:01.956Z,47.06
2023-03-05T03:25:01.967Z,47.00
2023-03-05T03:26:02.005Z,47.03
2023-03-05T03:27:01.943Z,47.17
2023-03-05T03:28:01.958Z,48.13
2023-03-05T03:29:01.934Z,46.99
2023-03-05T03:30:01.956Z,47.62
2023-03-05T03:31:01.995Z,47.08
2023-03-05T03:32:01.950Z,49.00
2023-03-05T03:33:01.904Z,46.97
2023-03-05T03:34:01.889Z,48.19
2023-03-05T03:35:01.931Z,47.23
2023-03-05T03:36:01.888Z,48.52
2023-03-05T03:37:01.884Z,47.41
2023-03-05T03:38:01.890Z,49.17
2023-03-05T03:39:01.862Z,49.23
2023-03-05T03:40:01.860Z,46.99
2023-03-05T03:41:01.849Z,46.91
2023-03-05T03:42:01.862Z,47.28
2023-03-05T03:43:01.832Z,47.01
2023-03-05T03:44:01.831Z,46.98
2023-03-05T03:45:01.834Z,46.92
2023-03-05T03:46:01.832Z,49.00
2023-03-05T03:47:01.830Z,47.87
2023-03-05T03:48:01.816Z,47.15
2023-03-05T03:49:01.825Z,47.09
2023-03-05T03:50:01.800Z,48.45
2023-03-05T03:51:01.774Z,46.94
2023-03-05T03:52:01.788Z,46.89
2023-03-05T03:53:01.793Z,47.08
2023-03-05T03:54:01.762Z,47.30
2023-03-05T03:55:01.858Z,46.94
2023-03-05T03:56:01.762Z,47.05
2023-03-05T03:57:01.743Z,47.01
2023-03-05T03:58:01.754Z,47.00
2023-03-05T03:59:01.748Z,47.03
2023-03-05T04:00:01.737Z,46.94
2023-03-05T04:01:01.712Z,46.96
2023-03-05T04:02:01.705Z,47.03
2023-03-05T04:03:01.731Z,47.02
2023-03-05T04:04:01.748Z,47.44
2023-03-05T04:05:01.728Z,47.54
2023-03-05T04:06:01.691Z,48.35
2023-03-05T04:07:01.663Z,48.39
2023-03-05T04:08:01.672Z,47.73
2023-03-05T04:09:01.737Z,46.97
2023-03-05T04:10:01.680Z,47.05
2023-03-05T04:11:01.661Z,47.46
2023-03-05T04:12:01.649Z,47.42
2023-03-05T04:13:01.641Z,47.13
2023-03-05T04:14:01.657Z,48.96
2023-03-05T04:15:01.675Z,47.25
2023-03-05T04:16:01.684Z,47.18
2023-03-05T04:17:01.638Z,49.14
2023-03-05T04:18:01.610Z,47.99
2023-03-05T04:19:01.591Z,48.78
2023-03-05T04:20:01.660Z,47.41
2023-03-05T04:21:01.584Z,47.09
2023-03-05T04:22:01.591Z,47.35
2023-03-05T04:23:01.577Z,46.94
2023-03-05T04:24:01.573Z,47.10
2023-03-05T04:25:01.612Z,47.34
2023-03-05T04:26:01.590Z,47.13
2023-03-05T04:27:01.572Z,48.85
2023-03-05T04:28:01.562Z,48.94
2023-03-05T04:29:01.534Z,47.56
2023-03-05T04:30:01.608Z,47.05
2023-03-05T04:31:01.598Z,47.15
2023-03-05T04:32:01.562Z,48.70
2023-03-05T04:33:01.504Z,47.69
2023-03-05T04:34:01.514Z,48.01
2023-03-05T04:35:01.528Z,47.46
2023-03-05T04:36:01.525Z,47.70
2023-03-05T04:37:01.490Z,47.02
2023-03-05T04:38:01.492Z,48.58
2023-03-05T04:39:01.499Z,47.64
2023-03-05T04:40:01.481Z,47.13
2023-03-05T04:41:01.488Z,47.03
2023-03-05T04:42:01.461Z,47.07
2023-03-05T04:43:01.441Z,49.73
2023-03-05T04:44:01.476Z,50.87
2023-03-05T04:45:01.440Z,48.92
2023-03-05T04:46:01.473Z,47.29
2023-03-05T04:47:01.423Z,47.62
2023-03-05T04:48:01.415Z,48.44
2023-03-05T04:49:01.400Z,47.42
2023-03-05T04:50:01.404Z,48.55
2023-03-05T04:51:01.417Z,47.41
2023-03-05T04:52:01.397Z,51.55
2023-03-05T04:53:01.381Z,47.76
2023-03-05T04:54:01.383Z,47.11
2023-03-05T04:55:01.361Z,46.97
2023-03-05T04:56:01.407Z,46.99
2023-03-05T04:57:01.395Z,47.18
2023-03-05T04:58:01.433Z,48.88
2023-03-05T04:59:01.330Z,47.77
2023-03-05T05:00:01.332Z,47.66
2023-03-05T05:01:01.326Z,47.79
2023-03-05T05:02:01.415Z,47.00
2023-03-05T05:03:01.409Z,46.94
2023-03-05T05:04:01.332Z,47.13
2023-03-05T05:05:01.325Z,49.23
2023-03-05T05:06:01.309Z,47.47
2023-03-05T05:07:01.350Z,47.45
2023-03-05T05:08:01.320Z,47.09
2023-03-05T05:09:01.306Z,47.08
2023-03-05T05:10:01.299Z,47.13
2023-03-05T05:11:01.279Z,47.07
2023-03-05T05:12:01.279Z,47.82
2023-03-05T05:13:01.303Z,48.22
2023-03-05T05:14:01.260Z,47.08
2023-03-05T05:15:01.254Z,47.09
2023-03-05T05:16:01.323Z,47.01
2023-03-05T05:17:01.221Z,47.07
2023-03-05T05:18:01.245Z,47.10
2023-03-05T05:19:01.280Z,47.52
2023-03-05T05:20:01.201Z,47.13
2023-03-05T05:21:01.221Z,48.22
2023-03-05T05:22:01.218Z,47.44
2023-03-05T05:23:01.180Z,47.17
2023-03-05T05:24:01.221Z,47.11
2023-03-05T05:25:01.192Z,47.38
2023-03-05T05:26:01.181Z,50.45
2023-03-05T05:27:01.171Z,47.48
2023-03-05T05:28:01.159Z,48.23
2023-03-05T05:29:01.210Z,47.11
2023-03-05T05:30:01.178Z,48.85
2023-03-05T05:31:01.156Z,48.99
2023-03-05T05:32:01.152Z,47.23
2023-03-05T05:33:01.128Z,47.24
2023-03-05T05:34:01.165Z,47.09
2023-03-05T05:35:01.176Z,47.32
2023-03-05T05:36:01.152Z,48.21
2023-03-05T05:37:01.120Z,47.57
2023-03-05T05:38:01.098Z,47.09
2023-03-05T05:39:01.107Z,47.73
2023-03-05T05:40:01.118Z,47.23
2023-03-05T05:41:01.108Z,47.67
2023-03-05T05:42:01.072Z,48.90
2023-03-05T05:43:01.072Z,48.07
2023-03-05T05:44:01.060Z,48.59
2023-03-05T05:45:01.080Z,49.04
2023-03-05T05:46:01.195Z,48.40
2023-03-05T05:47:02.047Z,48.73
2023-03-05T05:48:01.039Z,49.65
2023-03-05T05:49:01.044Z,48.48
2023-03-05T05:50:01.065Z,47.97
2023-03-05T05:51:01.025Z,48.04
2023-03-05T05:52:01.020Z,47.59
2023-03-05T05:53:01.027Z,47.31
2023-03-05T05:54:01.009Z,47.28
2023-03-05T05:55:00.998Z,49.00
2023-03-05T05:56:01.005Z,48.39
2023-03-05T05:57:01.011Z,48.01
2023-03-05T05:58:00.985Z,47.79
2023-03-05T05:59:00.994Z,48.28
2023-03-05T06:00:00.980Z,47.08
2023-03-05T06:01:01.002Z,47.80
2023-03-05T06:02:01.078Z,48.80
2023-03-05T06:03:01.038Z,47.64
2023-03-05T06:04:00.969Z,47.58
2023-03-05T06:05:00.960Z,48.55
2023-03-05T06:06:00.948Z,47.39
2023-03-05T06:07:00.935Z,48.02
2023-03-05T06:08:00.950Z,48.56
2023-03-05T06:09:00.899Z,49.54
2023-03-05T06:10:00.893Z,48.09
2023-03-05T06:11:00.907Z,47.63
2023-03-05T06:12:00.899Z,47.56
2023-03-05T06:13:00.922Z,48.88
2023-03-05T06:14:00.885Z,47.48
2023-03-05T06:15:00.870Z,47.31
2023-03-05T06:16:00.880Z,50.36
2023-03-05T06:17:00.857Z,48.40
2023-03-05T06:18:00.915Z,47.75
2023-03-05T06:19:02.433Z,50.52
2023-03-05T06:20:00.828Z,48.06
2023-03-05T06:21:00.838Z,48.61
2023-03-05T06:22:00.827Z,47.31
2023-03-05T06:23:00.812Z,47.27
2023-03-05T06:24:00.839Z,47.60
2023-03-05T06:25:00.825Z,49.56
2023-03-05T06:26:00.792Z,49.17
2023-03-05T06:27:00.782Z,48.24
2023-03-05T06:28:00.779Z,48.82
2023-03-05T06:29:00.836Z,49.22
2023-03-05T06:30:00.776Z,48.14
2023-03-05T06:31:00.859Z,49.48
2023-03-05T06:32:00.809Z,49.40
2023-03-05T06:33:00.735Z,48.17
2023-03-05T06:34:00.736Z,48.22
2023-03-05T06:35:00.795Z,49.39
2023-03-05T06:36:00.770Z,47.28
2023-03-05T06:37:00.744Z,48.16
2023-03-05T06:38:00.697Z,49.87
2023-03-05T06:39:00.723Z,50.89
2023-03-05T06:40:00.738Z,48.62
2023-03-05T06:41:00.693Z,47.73
2023-03-05T06:42:00.690Z,48.68
2023-03-05T06:43:00.687Z,49.35
2023-03-05T06:44:00.684Z,48.58
2023-03-05T06:45:00.705Z,48.40
2023-03-05T06:46:00.719Z,49.26
2023-03-05T06:47:00.682Z,47.67
2023-03-05T06:48:00.651Z,48.97
2023-03-05T06:49:00.664Z,48.06
2023-03-05T06:50:00.673Z,51.23
2023-03-05T06:51:00.646Z,49.95
2023-03-05T06:52:00.646Z,47.95
2023-03-05T06:53:00.653Z,47.95
2023-03-05T06:54:00.620Z,47.59
2023-03-05T06:55:00.668Z,49.94
2023-03-05T06:56:00.619Z,48.41
2023-03-05T06:57:00.603Z,51.82
2023-03-05T06:58:00.611Z,48.30
2023-03-05T06:59:00.603Z,49.25
2023-03-05T07:00:00.585Z,48.32
2023-03-05T07:01:00.666Z,49.89
2023-03-05T07:02:00.731Z,54.53
2023-03-05T07:03:00.552Z,56.72
2023-03-05T07:04:00.631Z,56.36
2023-03-05T07:05:00.530Z,48.29
2023-03-05T07:06:00.547Z,48.51
2023-03-05T07:07:00.550Z,47.85
2023-03-05T07:08:00.521Z,47.43
2023-03-05T07:09:00.507Z,48.88
2023-03-05T07:10:00.511Z,47.56
2023-03-05T07:11:00.496Z,48.08
2023-03-05T07:12:00.534Z,47.43
2023-03-05T07:13:00.482Z,49.72
2023-03-05T07:14:00.510Z,50.73
2023-03-05T07:15:00.476Z,49.74
2023-03-05T07:16:00.544Z,49.30
2023-03-05T07:17:00.450Z,49.58
2023-03-05T07:18:00.477Z,49.21
2023-03-05T07:19:00.441Z,48.60
2023-03-05T07:20:00.436Z,48.79
2023-03-05T07:21:00.433Z,49.56
2023-03-05T07:22:00.468Z,48.91
2023-03-05T07:23:00.473Z,49.78
2023-03-05T07:24:00.431Z,50.65
2023-03-05T07:25:00.436Z,50.15
2023-03-05T07:26:00.419Z,49.04
2023-03-05T07:27:00.419Z,49.58
2023-03-05T07:28:00.416Z,51.23
2023-03-05T07:29:00.382Z,51.30
2023-03-05T07:30:00.407Z,49.95
2023-03-05T07:31:00.416Z,50.17
2023-03-05T07:32:00.403Z,49.90
2023-03-05T07:33:00.336Z,48.88
2023-03-05T07:34:00.346Z,48.60
2023-03-05T07:35:00.361Z,49.43
2023-03-05T07:36:00.411Z,49.97
2023-03-05T07:37:00.367Z,52.09
2023-03-05T07:38:00.377Z,49.71
2023-03-05T07:39:00.333Z,48.49
2023-03-05T07:40:00.357Z,48.32
2023-03-05T07:41:00.364Z,50.19
2023-03-05T07:42:00.329Z,48.85
2023-03-05T07:43:00.300Z,49.57
2023-03-05T07:44:00.280Z,50.58
2023-03-05T07:45:00.312Z,51.22
2023-03-05T07:46:00.374Z,52.20
2023-03-05T07:47:00.347Z,48.82
2023-03-05T07:48:00.241Z,49.12
2023-03-05T07:49:00.269Z,49.73
2023-03-05T07:50:00.264Z,49.53
2023-03-05T07:51:00.278Z,50.50
2023-03-05T07:52:00.273Z,47.75
2023-03-05T07:53:00.230Z,50.22
2023-03-05T07:54:00.240Z,49.00
2023-03-05T07:55:00.222Z,48.45
2023-03-05T07:56:00.217Z,52.33
2023-03-05T07:57:00.253Z,52.01
2023-03-05T07:58:00.202Z,50.07
2023-03-05T07:59:00.201Z,49.39
2023-03-05T08:00:00.277Z,49.92
2023-03-05T08:01:00.181Z,50.99
2023-03-05T08:02:00.192Z,48.65
2023-03-05T08:03:00.204Z,49.53
2023-03-05T08:04:00.249Z,52.04
2023-03-05T08:05:00.166Z,50.59
2023-03-05T08:06:00.162Z,49.26
2023-03-05T08:07:00.153Z,50.15
2023-03-05T08:08:00.141Z,50.69
2023-03-05T08:09:00.182Z,52.12
2023-03-05T08:10:00.159Z,49.02
2023-03-05T08:11:00.502Z,52.19
2023-03-05T08:12:00.105Z,48.68
2023-03-05T08:13:00.124Z,51.47
2023-03-05T08:14:00.157Z,50.04
2023-03-05T08:15:00.108Z,51.89
2023-03-05T08:16:00.153Z,52.94
2023-03-05T08:17:00.099Z,51.21
2023-03-05T08:18:00.086Z,49.60
2023-03-05T08:19:00.114Z,50.99
2023-03-05T08:20:00.080Z,48.65
2023-03-05T08:21:00.042Z,49.57
2023-03-05T08:22:00.062Z,49.06
2023-03-05T08:23:00.055Z,52.55
2023-03-05T08:24:00.063Z,52.59
2023-03-05T08:25:00.014Z,50.75
2023-03-05T08:26:01.025Z,49.46
2023-03-05T08:27:00.039Z,50.22
2023-03-05T08:28:00.018Z,51.74
2023-03-05T08:29:00.139Z,52.60
2023-03-05T08:30:00.005Z,49.27
2023-03-05T08:31:00.014Z,50.24
2023-03-05T08:32:00.087Z,50.35
2023-03-05T08:32:59.977Z,51.90
2023-03-05T08:33:59.961Z,52.40
2023-03-05T08:34:59.971Z,50.46
2023-03-05T08:36:00.977Z,47.75
2023-03-05T08:36:59.952Z,49.41
2023-03-05T08:37:59.944Z,52.33
2023-03-05T08:38:59.977Z,50.51
2023-03-05T08:40:00.004Z,49.04
2023-03-05T08:40:59.953Z,51.97
2023-03-05T08:41:59.908Z,50.67
2023-03-05T08:42:59.920Z,50.07
2023-03-05T08:44:00.958Z,51.07
2023-03-05T08:44:59.952Z,50.61
2023-03-05T08:45:59.884Z,50.62
2023-03-05T08:46:59.959Z,51.81
2023-03-05T08:47:59.930Z,52.84
2023-03-05T08:48:59.891Z,52.00
2023-03-05T08:49:59.921Z,50.75
2023-03-05T08:50:59.915Z,50.44
2023-03-05T08:51:59.892Z,50.25
2023-03-05T08:52:59.890Z,51.42
2023-03-05T08:53:59.851Z,52.82
2023-03-05T08:54:59.858Z,51.04
2023-03-05T08:55:59.920Z,52.47
2023-03-05T08:56:59.846Z,51.19
2023-03-05T08:57:59.822Z,52.88
2023-03-05T08:58:59.840Z,49.88
2023-03-05T08:59:59.831Z,49.71
2023-03-05T09:00:59.832Z,50.89
2023-03-05T09:01:59.992Z,50.23
2023-03-05T09:02:59.929Z,50.90
2023-03-05T09:03:59.823Z,50.87
2023-03-05T09:04:59.789Z,51.64
2023-03-05T09:05:59.769Z,51.96
2023-03-05T09:06:59.821Z,51.24
2023-03-05T09:07:59.786Z,49.43
2023-03-05T09:08:59.763Z,50.01
2023-03-05T09:09:59.743Z,49.46
2023-03-05T09:10:59.741Z,52.82
2023-03-05T09:11:59.758Z,50.20
2023-03-05T09:12:59.749Z,51.16
2023-03-05T09:13:59.714Z,50.23
2023-03-05T09:14:59.735Z,51.49
2023-03-05T09:15:59.724Z,51.11
2023-03-05T09:16:59.697Z,51.41
2023-03-05T09:17:59.717Z,50.39
2023-03-05T09:18:59.704Z,52.99
2023-03-05T09:19:59.685Z,51.48
2023-03-05T09:20:59.790Z,51.22
2023-03-05T09:21:59.695Z,50.05
2023-03-05T09:22:59.679Z,52.00
2023-03-05T09:23:59.694Z,50.79
2023-03-05T09:24:59.657Z,51.52
2023-03-05T09:25:59.648Z,52.54
2023-03-05T09:26:59.671Z,51.65
2023-03-05T09:27:59.680Z,50.05
2023-03-05T09:28:59.659Z,50.10
2023-03-05T09:29:59.612Z,51.03
2023-03-05T09:30:59.614Z,52.37
2023-03-05T09:31:59.734Z,52.07
2023-03-05T09:32:59.621Z,53.76
2023-03-05T09:33:59.618Z,51.04
2023-03-05T09:34:59.596Z,52.15
2023-03-05T09:35:59.638Z,49.33
2023-03-05T09:36:59.565Z,51.29
2023-03-05T09:37:59.563Z,49.22
2023-03-05T09:38:59.604Z,50.00
2023-03-05T09:39:59.676Z,52.06
2023-03-05T09:40:59.576Z,51.11
2023-03-05T09:41:59.540Z,52.13
2023-03-05T09:42:59.566Z,53.19
2023-03-05T09:43:59.554Z,50.59
2023-03-05T09:44:59.520Z,52.02
2023-03-05T09:45:59.572Z,50.64
2023-03-05T09:46:59.517Z,50.60
2023-03-05T09:47:59.537Z,49.32
2023-03-05T09:48:59.505Z,50.39
2023-03-05T09:49:59.518Z,51.26
2023-03-05T09:50:59.495Z,52.01
2023-03-05T09:51:59.484Z,51.33
2023-03-05T09:53:00.495Z,49.83
2023-03-05T09:54:01.577Z,50.13
2023-03-05T09:54:59.490Z,50.41
2023-03-05T09:55:59.491Z,49.33
2023-03-05T09:56:59.473Z,50.72
2023-03-05T09:57:59.470Z,49.83
2023-03-05T09:58:59.479Z,51.06
2023-03-05T09:59:59.443Z,48.22
2023-03-05T10:00:59.615Z,49.85
2023-03-05T10:01:59.487Z,54.64
2023-03-05T10:02:59.500Z,55.04
2023-03-05T10:03:59.468Z,56.09
2023-03-05T10:04:59.418Z,52.84
2023-03-05T10:05:59.455Z,53.44
2023-03-05T10:06:59.407Z,52.16
2023-03-05T10:07:59.437Z,49.85
2023-03-05T10:08:59.411Z,49.32
2023-03-05T10:09:59.410Z,49.45
2023-03-05T10:10:59.400Z,49.45
2023-03-05T10:11:59.421Z,50.44
2023-03-05T10:12:59.394Z,48.80
2023-03-05T10:13:59.421Z,52.65
2023-03-05T10:14:59.365Z,49.50
2023-03-05T10:15:59.361Z,51.28
2023-03-05T10:16:59.343Z,49.39
2023-03-05T10:17:59.348Z,49.90
2023-03-05T10:18:59.346Z,50.00
2023-03-05T10:19:59.325Z,53.67
2023-03-05T10:20:59.342Z,52.06
2023-03-05T10:21:59.318Z,51.32
2023-03-05T10:22:59.386Z,47.82
2023-03-05T10:23:59.303Z,49.92
2023-03-05T10:24:59.299Z,50.49
2023-03-05T10:25:59.303Z,50.62
2023-03-05T10:26:59.313Z,51.73
2023-03-05T10:27:59.330Z,50.39
2023-03-05T10:28:59.306Z,53.51
2023-03-05T10:29:59.260Z,52.09
2023-03-05T10:30:59.285Z,51.00
2023-03-05T10:31:59.417Z,48.78
2023-03-05T10:32:59.290Z,50.51
2023-03-05T10:33:59.249Z,48.01
2023-03-05T10:34:59.254Z,52.88
2023-03-05T10:35:59.255Z,51.18
2023-03-05T10:36:59.223Z,50.11
2023-03-05T10:37:59.224Z,50.70
2023-03-05T10:38:59.214Z,49.79
2023-03-05T10:39:59.201Z,51.61
2023-03-05T10:40:59.220Z,49.69
2023-03-05T10:41:59.315Z,47.96
2023-03-05T10:42:59.216Z,51.99
2023-03-05T10:43:59.187Z,52.45
2023-03-05T10:44:59.175Z,49.51
2023-03-05T10:45:59.219Z,48.49
2023-03-05T10:46:59.187Z,47.40
2023-03-05T10:47:59.168Z,51.03
2023-03-05T10:48:59.142Z,52.49
2023-03-05T10:49:59.173Z,52.32
2023-03-05T10:50:59.181Z,50.54
2023-03-05T10:51:59.155Z,48.62
2023-03-05T10:52:59.153Z,50.57
2023-03-05T10:53:59.135Z,51.81
2023-03-05T10:54:59.109Z,50.86
2023-03-05T10:55:59.231Z,51.27
2023-03-05T10:56:59.122Z,50.18
2023-03-05T10:57:59.140Z,51.65
2023-03-05T10:58:59.100Z,51.58
2023-03-05T10:59:59.113Z,50.42
2023-03-05T11:00:59.117Z,52.48
2023-03-05T11:01:59.091Z,50.51
2023-03-05T11:02:59.084Z,52.03
2023-03-05T11:03:59.105Z,48.94
2023-03-05T11:04:59.048Z,48.78
2023-03-05T11:05:59.050Z,52.08
2023-03-05T11:06:59.102Z,53.12
2023-03-05T11:07:59.079Z,51.77
2023-03-05T11:08:59.076Z,50.76
2023-03-05T11:09:59.055Z,53.58
2023-03-05T11:10:59.059Z,52.48
2023-03-05T11:11:59.025Z,51.46
2023-03-05T11:12:59.043Z,49.86
2023-03-05T11:13:59.038Z,49.80
2023-03-05T11:14:58.988Z,48.67
2023-03-05T11:15:59.030Z,50.02
2023-03-05T11:16:58.974Z,50.25
2023-03-05T11:17:58.983Z,50.97
2023-03-05T11:18:59.012Z,51.60
2023-03-05T11:19:58.949Z,49.26
2023-03-05T11:20:59.969Z,50.96
2023-03-05T11:21:59.825Z,49.91
2023-03-05T11:22:59.939Z,49.54
2023-03-05T11:23:58.945Z,50.42
2023-03-05T11:24:58.960Z,48.97
2023-03-05T11:25:58.925Z,50.49
2023-03-05T11:26:58.923Z,49.51
2023-03-05T11:27:58.953Z,50.43
2023-03-05T11:28:58.953Z,49.77
2023-03-05T11:29:58.928Z,49.58
2023-03-05T11:30:59.030Z,50.61
2023-03-05T11:31:58.920Z,49.63
2023-03-05T11:32:58.904Z,49.74
2023-03-05T11:33:58.880Z,51.13
2023-03-05T11:34:58.912Z,49.18
2023-03-05T11:35:58.886Z,50.44
2023-03-05T11:36:58.899Z,50.52
2023-03-05T11:37:58.863Z,53.02
2023-03-05T11:38:59.012Z,53.05
2023-03-05T11:39:58.859Z,52.26
2023-03-05T11:40:58.891Z,53.37
2023-03-05T11:41:58.890Z,49.71
2023-03-05T11:42:58.830Z,51.42
2023-03-05T11:43:58.843Z,51.02
2023-03-05T11:44:58.836Z,50.36
2023-03-05T11:45:58.892Z,49.28
2023-03-05T11:46:58.825Z,51.08
2023-03-05T11:47:58.822Z,53.50
2023-03-05T11:48:58.781Z,50.45
2023-03-05T11:49:58.824Z,48.47
2023-03-05T11:50:58.823Z,51.82
2023-03-05T11:51:58.806Z,48.48
2023-03-05T11:52:58.785Z,49.18
2023-03-05T11:53:59.807Z,52.01
2023-03-05T11:54:58.780Z,50.45
2023-03-05T11:55:58.750Z,47.68
2023-03-05T11:56:58.771Z,48.27
2023-03-05T11:57:58.758Z,48.58
2023-03-05T11:58:58.759Z,49.21
2023-03-05T11:59:58.722Z,48.09
2023-03-05T12:00:58.725Z,47.83
2023-03-05T12:01:58.777Z,48.84
2023-03-05T12:02:58.780Z,50.49
2023-03-05T12:03:58.858Z,49.59
2023-03-05T12:04:58.720Z,50.63
2023-03-05T12:05:58.698Z,50.70
2023-03-05T12:06:58.814Z,49.63
2023-03-05T12:07:58.720Z,51.06
2023-03-05T12:08:58.667Z,50.30
2023-03-05T12:09:58.714Z,47.95
2023-03-05T12:10:58.668Z,49.07
2023-03-05T12:11:58.914Z,47.91
2023-03-05T12:12:58.811Z,48.39
2023-03-05T12:13:58.663Z,49.00
2023-03-05T12:14:58.642Z,51.16
2023-03-05T12:15:58.678Z,50.97
2023-03-05T12:16:58.622Z,48.07
2023-03-05T12:17:58.656Z,52.46
2023-03-05T12:18:59.012Z,48.56
2023-03-05T12:19:58.645Z,51.95
2023-03-05T12:20:58.778Z,50.16
2023-03-05T12:21:58.739Z,51.36
2023-03-05T12:22:58.597Z,49.19
2023-03-05T12:23:58.843Z,52.13
2023-03-05T12:24:58.567Z,49.30
2023-03-05T12:25:58.581Z,51.89
2023-03-05T12:26:58.562Z,50.20
2023-03-05T12:27:58.561Z,52.48
2023-03-05T12:28:58.601Z,51.41
2023-03-05T12:29:58.619Z,50.25
2023-03-05T12:30:58.564Z,51.11
2023-03-05T12:31:58.598Z,50.50
2023-03-05T12:32:58.544Z,49.81
2023-03-05T12:33:58.527Z,52.42
2023-03-05T12:34:58.539Z,48.32
2023-03-05T12:35:58.569Z,50.46
2023-03-05T12:36:58.511Z,50.04
2023-03-05T12:37:58.503Z,49.49
2023-03-05T12:38:58.503Z,49.63
2023-03-05T12:39:58.507Z,57.02
2023-03-05T12:40:58.502Z,57.30
2023-03-05T12:41:58.473Z,50.50
2023-03-05T12:42:58.464Z,54.81
2023-03-05T12:43:58.454Z,52.90
2023-03-05T12:44:58.463Z,54.89
2023-03-05T12:45:58.474Z,50.88
2023-03-05T12:46:58.501Z,51.21
2023-03-05T12:47:58.435Z,52.17
2023-03-05T12:48:58.427Z,50.69
2023-03-05T12:49:58.446Z,55.07
2023-03-05T12:50:58.437Z,51.26
2023-03-05T12:51:58.400Z,53.48